createdAt,value
2018-07-02T00:00:58.460Z,11.80
2018-07-02T00:03:27.012Z,11.70
2018-07-02T00:06:06.703Z,11.70
2018-07-02T00:08:35.178Z,11.60
2018-07-02T00:11:03.610Z,11.50
2018-07-02T00:13:31.968Z,11.50
2018-07-02T00:16:00.373Z,11.40
2018-07-02T00:18:28.747Z,11.30
2018-07-02T00:20:57.105Z,11.30
2018-07-02T00:23:25.485Z,11.20
2018-07-02T00:25:53.939Z,11.20
2018-07-02T00:28:22.307Z,11.20
2018-07-02T00:30:50.680Z,11.10
2018-07-02T00:33:19.110Z,11.10
2018-07-02T00:35:47.442Z,11.00
2018-07-02T00:38:15.897Z,11.00
2018-07-02T00:40:44.290Z,11.00
2018-07-02T00:43:12.799Z,10.90
2018-07-02T00:45:41.824Z,10.90
2018-07-02T00:48:10.188Z,10.80
2018-07-02T00:50:38.559Z,10.70
2018-07-02T00:53:06.977Z,10.60
2018-07-02T00:55:35.370Z,10.60
2018-07-02T00:58:03.784Z,10.50
2018-07-02T01:00:32.176Z,10.50
2018-07-02T01:03:00.559Z,10.40
2018-07-02T01:05:28.938Z,10.40
2018-07-02T01:07:57.320Z,10.40
2018-07-02T01:10:25.738Z,10.40
2018-07-02T01:12:54.108Z,10.30
2018-07-02T01:15:22.468Z,10.30
2018-07-02T01:17:50.910Z,10.30
2018-07-02T01:20:19.322Z,10.30
2018-07-02T01:22:47.716Z,10.30
2018-07-02T01:25:16.183Z,10.30
2018-07-02T01:27:44.579Z,10.20
2018-07-02T01:30:13.002Z,10.30
2018-07-02T01:32:41.404Z,10.20
2018-07-02T01:35:09.786Z,10.20
2018-07-02T01:40:06.331Z,10.20
2018-07-02T01:42:34.715Z,10.20
2018-07-02T01:45:03.122Z,10.10
2018-07-02T01:47:31.483Z,10.10
2018-07-02T01:49:59.852Z,10.00
2018-07-02T01:52:28.227Z,9.90
2018-07-02T01:54:56.746Z,9.90
2018-07-02T01:57:25.111Z,9.80
2018-07-02T01:59:53.483Z,9.80
2018-07-02T02:02:21.891Z,9.70
2018-07-02T02:04:50.282Z,9.70
2018-07-02T02:07:18.674Z,9.60
2018-07-02T02:09:47.016Z,9.60
2018-07-02T02:12:15.391Z,9.50
2018-07-02T02:14:43.788Z,9.50
2018-07-02T02:17:12.224Z,9.50
2018-07-02T02:19:40.640Z,9.50
2018-07-02T02:22:09.003Z,9.40
2018-07-02T02:24:37.418Z,9.40
2018-07-02T02:27:05.924Z,9.40
2018-07-02T02:29:34.311Z,9.40
2018-07-02T02:32:02.700Z,9.30
2018-07-02T02:34:31.126Z,9.30
2018-07-02T02:36:59.514Z,9.30
2018-07-02T02:39:27.906Z,9.30
2018-07-02T02:41:56.324Z,9.20
2018-07-02T02:44:24.712Z,9.20
2018-07-02T02:46:53.114Z,9.20
2018-07-02T02:49:21.499Z,9.10
2018-07-02T02:51:49.887Z,9.10
2018-07-02T02:54:18.250Z,9.10
2018-07-02T02:56:46.617Z,9.00
2018-07-02T02:59:14.996Z,8.90
2018-07-02T03:01:43.424Z,8.90
2018-07-02T03:04:11.852Z,8.80
2018-07-02T03:06:40.265Z,8.80
2018-07-02T03:09:09.391Z,8.80
2018-07-02T03:11:37.771Z,8.70
2018-07-02T03:14:06.137Z,8.70
2018-07-02T03:16:34.502Z,8.70
2018-07-02T03:19:02.890Z,8.70
2018-07-02T03:21:31.273Z,8.70
2018-07-02T03:23:59.616Z,8.70
2018-07-02T03:26:28.020Z,8.70
2018-07-02T03:28:56.388Z,8.70
2018-07-02T03:31:24.792Z,8.70
2018-07-02T03:33:53.145Z,8.70
2018-07-02T03:36:21.507Z,8.60
2018-07-02T03:38:49.892Z,8.60
2018-07-02T03:41:18.266Z,8.60
2018-07-02T03:43:46.683Z,8.60
2018-07-02T03:48:43.179Z,8.60
2018-07-02T03:51:11.562Z,8.60
2018-07-02T03:53:39.950Z,8.60
2018-07-02T03:56:08.336Z,8.70
2018-07-02T03:58:36.711Z,8.70
2018-07-02T04:01:05.295Z,8.80
2018-07-02T04:03:33.677Z,8.80
2018-07-02T04:06:02.065Z,8.90
2018-07-02T04:08:30.454Z,9.00
2018-07-02T04:10:58.868Z,9.00
2018-07-02T04:13:27.258Z,9.10
2018-07-02T04:15:55.640Z,9.20
2018-07-02T04:18:23.995Z,9.20
2018-07-02T04:20:52.407Z,9.30
2018-07-02T04:23:20.811Z,9.40
2018-07-02T04:25:49.244Z,9.40
2018-07-02T04:28:17.562Z,9.50
2018-07-02T04:30:45.927Z,9.60
2018-07-02T04:33:14.260Z,9.70
2018-07-02T04:35:42.617Z,9.80
2018-07-02T04:38:11.009Z,9.90
2018-07-02T04:40:39.475Z,10.00
2018-07-02T04:43:07.871Z,10.10
2018-07-02T04:45:36.243Z,10.20
2018-07-02T04:48:04.749Z,10.30
2018-07-02T04:50:33.134Z,10.40
2018-07-02T04:53:01.574Z,10.50
2018-07-02T04:55:30.208Z,10.70
2018-07-02T04:57:58.580Z,10.90
2018-07-02T05:00:26.994Z,11.00
2018-07-02T05:02:55.382Z,11.30
2018-07-02T05:05:23.902Z,11.60
2018-07-02T05:07:52.242Z,11.90
2018-07-02T05:10:20.662Z,12.20
2018-07-02T05:12:49.065Z,12.50
2018-07-02T05:15:17.395Z,12.90
2018-07-02T05:17:46.003Z,13.20
2018-07-02T05:20:14.406Z,13.50
2018-07-02T05:22:42.744Z,13.80
2018-07-02T05:25:11.232Z,14.00
2018-07-02T05:27:39.576Z,14.30
2018-07-02T05:30:07.954Z,14.50
2018-07-02T05:32:36.295Z,14.70
2018-07-02T05:35:04.658Z,14.80
2018-07-02T05:37:32.995Z,15.00
2018-07-02T05:40:01.404Z,15.30
2018-07-02T05:42:29.780Z,15.40
2018-07-02T05:44:58.118Z,15.70
2018-07-02T05:47:26.472Z,15.90
2018-07-02T05:49:54.816Z,16.20
2018-07-02T05:52:23.160Z,16.40
2018-07-02T05:54:51.540Z,16.60
2018-07-02T05:57:19.912Z,16.90
2018-07-02T05:59:48.258Z,17.00
2018-07-02T06:02:16.607Z,17.40
2018-07-02T06:04:44.997Z,17.70
2018-07-02T06:07:13.441Z,17.90
2018-07-02T06:09:41.834Z,17.90
2018-07-02T06:12:10.231Z,17.90
2018-07-02T06:14:38.578Z,17.80
2018-07-02T06:17:06.926Z,18.00
2018-07-02T06:19:35.287Z,18.30
2018-07-02T06:22:03.636Z,18.40
2018-07-02T06:24:32.005Z,18.50
2018-07-02T06:27:00.332Z,18.80
2018-07-02T06:29:28.695Z,19.00
2018-07-02T06:31:57.084Z,19.20
2018-07-02T06:34:25.546Z,19.60
2018-07-02T06:36:53.884Z,19.80
2018-07-02T06:39:22.221Z,20.00
2018-07-02T06:41:50.559Z,20.00
2018-07-02T06:44:18.937Z,19.90
2018-07-02T06:46:47.322Z,20.10
2018-07-02T06:49:15.691Z,20.20
2018-07-02T06:51:44.020Z,20.30
2018-07-02T06:56:40.477Z,20.00
2018-07-02T06:59:08.800Z,20.20
2018-07-02T07:01:37.130Z,20.50
2018-07-02T07:04:05.518Z,20.80
2018-07-02T07:06:33.899Z,21.20
2018-07-02T07:09:02.243Z,21.50
2018-07-02T07:11:30.611Z,21.50
2018-07-02T07:13:59.000Z,21.50
2018-07-02T07:16:27.321Z,21.20
2018-07-02T07:18:55.663Z,21.40
2018-07-02T07:21:24.012Z,21.50
2018-07-02T07:23:52.365Z,21.80
2018-07-02T07:26:20.735Z,21.60
2018-07-02T07:28:49.040Z,21.60
2018-07-02T07:31:17.417Z,21.50
2018-07-02T07:33:45.753Z,21.50
2018-07-02T07:36:14.140Z,21.80
2018-07-02T07:38:42.534Z,22.20
2018-07-02T07:41:10.849Z,22.40
2018-07-02T07:43:39.201Z,22.60
2018-07-02T07:46:07.574Z,22.50
2018-07-02T07:48:35.995Z,22.80
2018-07-02T07:51:04.370Z,23.30
2018-07-02T07:53:32.773Z,23.30
2018-07-02T07:56:01.121Z,23.20
2018-07-02T07:58:29.484Z,23.30
2018-07-02T08:00:57.831Z,23.40
2018-07-02T08:03:26.265Z,23.40
2018-07-02T08:08:22.674Z,23.90
2018-07-02T08:10:51.044Z,24.30
2018-07-02T08:13:19.669Z,24.60
2018-07-02T08:15:48.058Z,24.40
2018-07-02T08:18:16.702Z,24.60
2018-07-02T08:20:45.107Z,25.20
2018-07-02T08:23:13.517Z,25.50
2018-07-02T08:25:41.942Z,25.60
2018-07-02T08:28:10.391Z,25.80
2018-07-02T08:30:38.747Z,25.90
2018-07-02T08:33:07.239Z,26.20
2018-07-02T08:35:35.676Z,26.40
2018-07-02T08:38:04.197Z,26.70
2018-07-02T08:40:32.643Z,26.80
2018-07-02T08:43:01.026Z,27.30
2018-07-02T08:45:31.502Z,27.40
2018-07-02T08:48:00.476Z,27.50
2018-07-02T08:50:29.143Z,27.40
2018-07-02T08:52:57.558Z,27.30
2018-07-02T08:55:25.972Z,26.60
2018-07-02T08:57:54.416Z,26.80
2018-07-02T09:00:22.783Z,27.10
2018-07-02T09:02:51.148Z,26.70
2018-07-02T09:05:19.609Z,26.80
2018-07-02T09:07:48.025Z,27.10
2018-07-02T09:10:16.464Z,27.30
2018-07-02T09:12:44.827Z,27.10
2018-07-02T09:15:13.299Z,27.50
2018-07-02T09:17:41.701Z,27.60
2018-07-02T09:20:10.131Z,27.70
2018-07-02T09:22:38.502Z,27.90
2018-07-02T09:25:06.876Z,27.80
2018-07-02T09:27:35.269Z,28.00
2018-07-02T09:30:03.726Z,28.30
2018-07-02T09:32:32.132Z,28.10
2018-07-02T09:35:00.487Z,28.00
2018-07-02T09:37:28.908Z,27.30
2018-07-02T09:39:57.296Z,26.70
2018-07-02T09:42:25.781Z,26.40
2018-07-02T09:44:54.159Z,26.80
2018-07-02T09:47:22.600Z,27.20
2018-07-02T09:49:51.034Z,27.20
2018-07-02T09:52:19.424Z,27.50
2018-07-02T09:54:47.937Z,27.80
2018-07-02T09:57:16.340Z,27.80
2018-07-02T09:59:44.798Z,27.70
2018-07-02T10:02:13.206Z,27.80
2018-07-02T10:04:41.586Z,27.60
2018-07-02T10:07:09.976Z,27.90
2018-07-02T10:09:38.365Z,28.10
2018-07-02T10:12:06.779Z,27.60
2018-07-02T10:14:35.180Z,27.80
2018-07-02T10:17:03.560Z,28.00
2018-07-02T10:19:31.979Z,27.80
2018-07-02T10:22:00.380Z,27.30
2018-07-02T10:24:28.755Z,27.70
2018-07-02T10:26:57.200Z,28.40
2018-07-02T10:29:25.643Z,28.40
2018-07-02T10:31:54.121Z,28.40
2018-07-02T10:34:22.496Z,28.70
2018-07-02T10:36:50.952Z,29.10
2018-07-02T10:39:19.381Z,28.90
2018-07-02T10:41:47.772Z,28.60
2018-07-02T10:46:44.631Z,27.90
2018-07-02T10:49:13.014Z,28.20
2018-07-02T10:51:41.394Z,28.30
2018-07-02T10:54:09.795Z,28.90
2018-07-02T10:56:38.161Z,29.40
2018-07-02T10:59:07.411Z,28.70
2018-07-02T11:01:35.775Z,29.00
2018-07-02T11:04:04.172Z,29.30
2018-07-02T11:06:32.587Z,29.80
2018-07-02T11:09:01.919Z,29.60
2018-07-02T11:11:30.308Z,29.30
2018-07-02T11:13:58.743Z,28.60
2018-07-02T11:16:27.116Z,28.40
2018-07-02T11:18:55.496Z,27.50
2018-07-02T11:23:51.966Z,28.00
2018-07-02T11:26:20.360Z,28.00
2018-07-02T11:28:48.722Z,27.30
2018-07-02T11:31:17.187Z,27.40
2018-07-02T11:33:45.760Z,27.80
2018-07-02T11:36:14.716Z,28.20
2018-07-02T11:38:43.180Z,28.90
2018-07-02T11:41:11.861Z,29.20
2018-07-02T11:43:40.224Z,29.80
2018-07-02T11:46:08.742Z,29.80
2018-07-02T11:48:37.094Z,29.70
2018-07-02T11:51:05.588Z,29.60
2018-07-02T11:53:34.047Z,29.60
2018-07-02T11:56:02.553Z,29.80
2018-07-02T11:58:31.025Z,29.40
2018-07-02T12:00:59.452Z,29.70
2018-07-02T12:03:27.835Z,29.60
2018-07-02T12:08:24.315Z,28.60
2018-07-02T12:10:53.267Z,29.00
2018-07-02T12:13:21.690Z,28.80
2018-07-02T12:15:50.081Z,29.10
2018-07-02T12:18:18.499Z,29.00
2018-07-02T12:20:46.922Z,29.30
2018-07-02T12:23:15.309Z,30.00
2018-07-02T12:25:43.666Z,30.20
2018-07-02T12:28:12.020Z,30.20
2018-07-02T12:30:40.396Z,30.20
2018-07-02T12:35:36.881Z,29.80
2018-07-02T12:38:05.324Z,30.00
2018-07-02T12:40:33.729Z,29.10
2018-07-02T12:43:02.095Z,29.10
2018-07-02T12:45:30.475Z,29.70
2018-07-02T12:47:58.803Z,30.00
2018-07-02T12:50:27.194Z,30.30
2018-07-02T12:52:55.607Z,30.70
2018-07-02T12:55:24.130Z,30.10
2018-07-02T12:57:52.529Z,29.70
2018-07-02T13:00:20.891Z,29.60
2018-07-02T13:02:49.316Z,29.50
2018-07-02T13:05:17.721Z,29.20
2018-07-02T13:07:46.113Z,28.90
2018-07-02T13:10:14.568Z,29.20
2018-07-02T13:12:42.939Z,29.80
2018-07-02T13:15:11.372Z,30.00
2018-07-02T13:17:39.751Z,30.30
2018-07-02T13:20:08.186Z,30.70
2018-07-02T13:22:36.567Z,31.00
2018-07-02T13:25:04.974Z,30.70
2018-07-02T13:27:33.343Z,30.80
2018-07-02T13:30:01.850Z,30.60
2018-07-02T13:32:30.115Z,29.80
2018-07-02T13:34:58.495Z,29.00
2018-07-02T13:37:26.948Z,29.20
2018-07-02T13:39:55.342Z,28.80
2018-07-02T13:42:23.739Z,29.30
2018-07-02T13:44:52.112Z,29.40
2018-07-02T13:47:20.486Z,29.50
2018-07-02T13:49:48.900Z,30.10
2018-07-02T13:52:17.276Z,30.40
2018-07-02T13:54:45.668Z,30.60
2018-07-02T13:57:13.998Z,30.70
2018-07-02T13:59:42.423Z,30.80
2018-07-02T14:02:10.828Z,30.70
2018-07-02T14:04:39.348Z,30.20
2018-07-02T14:07:07.754Z,30.30
2018-07-02T14:09:36.141Z,30.20
2018-07-02T14:12:04.579Z,30.40
2018-07-02T14:14:33.008Z,30.30
2018-07-02T14:17:01.389Z,30.40
2018-07-02T14:19:29.753Z,30.30
2018-07-02T14:21:58.099Z,30.20
2018-07-02T14:24:26.780Z,30.30
2018-07-02T14:26:55.239Z,30.50
2018-07-02T14:29:23.975Z,30.70
2018-07-02T14:31:52.382Z,30.10
2018-07-02T14:34:20.746Z,29.70
2018-07-02T14:36:49.143Z,29.60
2018-07-02T14:39:17.607Z,29.10
2018-07-02T14:41:45.981Z,29.10
2018-07-02T14:44:14.576Z,29.40
2018-07-02T14:46:42.948Z,29.60
2018-07-02T14:49:11.743Z,30.00
2018-07-02T14:51:40.301Z,30.30
2018-07-02T14:54:08.786Z,30.20
2018-07-02T14:56:37.280Z,30.00
2018-07-02T14:59:05.865Z,29.90
2018-07-02T15:01:34.328Z,29.50
2018-07-02T15:04:02.711Z,28.90
2018-07-02T15:06:31.083Z,28.10
2018-07-02T15:08:59.920Z,27.90
2018-07-02T15:11:28.352Z,28.30
2018-07-02T15:13:56.803Z,28.70
2018-07-02T15:16:25.237Z,29.10
2018-07-02T15:18:53.692Z,29.40
2018-07-02T15:21:22.247Z,29.30
2018-07-02T15:23:50.602Z,29.20
2018-07-02T15:26:19.695Z,28.90
2018-07-02T15:28:48.107Z,29.10
2018-07-02T15:31:16.539Z,29.10
2018-07-02T15:33:44.962Z,28.60
2018-07-02T15:36:13.553Z,28.50
2018-07-02T15:38:42.084Z,28.60
2018-07-02T15:41:10.567Z,28.20
2018-07-02T15:43:39.018Z,27.60
2018-07-02T15:46:07.472Z,27.50
2018-07-02T15:48:35.991Z,27.30
2018-07-02T15:51:04.412Z,27.20
2018-07-02T15:53:32.783Z,27.30
2018-07-02T15:56:01.254Z,27.40
2018-07-02T15:58:29.637Z,27.30
2018-07-02T16:00:58.156Z,26.80
2018-07-02T16:03:26.540Z,26.80
2018-07-02T16:05:54.923Z,26.90
2018-07-02T16:08:23.315Z,26.70
2018-07-02T16:10:51.700Z,26.40
2018-07-02T16:13:20.076Z,26.40
2018-07-02T16:15:48.455Z,26.20
2018-07-02T16:18:16.855Z,26.30
2018-07-02T16:20:45.379Z,26.50
2018-07-02T16:23:13.866Z,26.50
2018-07-02T16:25:52.648Z,26.50
2018-07-02T16:28:35.347Z,26.50
2018-07-02T16:31:03.765Z,26.50
2018-07-02T16:33:35.964Z,26.50
2018-07-02T16:36:14.736Z,26.30
2018-07-02T16:38:48.071Z,26.30
2018-07-02T16:41:16.823Z,25.90
2018-07-02T16:43:45.440Z,25.60
2018-07-02T16:46:14.130Z,25.50
2018-07-02T16:48:42.750Z,25.20
2018-07-02T16:51:11.316Z,25.10
2018-07-02T16:53:39.872Z,25.00
2018-07-02T16:56:08.395Z,24.80
2018-07-02T16:58:37.060Z,24.80
2018-07-02T17:01:08.661Z,24.90
2018-07-02T17:03:37.254Z,25.00
2018-07-02T17:08:33.885Z,25.10
2018-07-02T17:11:02.434Z,25.20
2018-07-02T17:13:31.189Z,25.20
2018-07-02T17:21:01.025Z,25.20
2018-07-02T17:23:29.690Z,25.00
2018-07-02T17:25:58.717Z,25.00
2018-07-02T17:28:27.296Z,24.90
2018-07-02T17:30:55.824Z,25.00
2018-07-02T17:33:24.540Z,24.80
2018-07-02T17:35:53.164Z,24.70
2018-07-02T17:38:22.861Z,24.70
2018-07-02T17:40:51.493Z,24.70
2018-07-02T17:43:19.999Z,24.60
2018-07-02T17:45:48.698Z,24.60
2018-07-02T17:48:17.252Z,24.50
2018-07-02T17:50:45.748Z,24.40
2018-07-02T17:53:14.347Z,24.40
2018-07-02T17:55:42.793Z,24.40
2018-07-02T17:58:11.214Z,24.40
2018-07-02T18:00:39.756Z,24.20
2018-07-02T18:03:08.202Z,24.10
2018-07-02T18:05:36.611Z,24.10
2018-07-02T18:08:05.280Z,24.00
2018-07-02T18:10:34.086Z,24.00
2018-07-02T18:13:02.554Z,23.90
2018-07-02T18:15:31.002Z,23.90
2018-07-02T18:17:59.434Z,23.80
2018-07-02T18:20:28.039Z,23.70
2018-07-02T18:22:56.650Z,23.70
2018-07-02T18:25:25.132Z,23.70
2018-07-02T18:27:53.579Z,23.60
2018-07-02T18:30:22.174Z,23.50
2018-07-02T18:32:50.803Z,23.50
2018-07-02T18:35:19.557Z,23.40
2018-07-02T18:37:48.043Z,23.40
2018-07-02T18:40:16.567Z,23.30
2018-07-02T18:42:45.143Z,23.30
2018-07-02T18:45:13.674Z,23.20
2018-07-02T18:47:42.178Z,23.10
2018-07-02T18:50:10.840Z,23.00
2018-07-02T18:52:39.591Z,22.90
2018-07-02T18:55:08.276Z,22.90
2018-07-02T18:57:37.179Z,22.80
2018-07-02T19:00:06.423Z,22.70
2018-07-02T19:02:35.035Z,22.70
2018-07-02T19:05:03.751Z,22.60
2018-07-02T19:07:32.614Z,22.60
2018-07-02T19:10:01.817Z,22.50
2018-07-02T19:12:30.267Z,22.50
2018-07-02T19:14:58.863Z,22.40
2018-07-02T19:17:27.678Z,22.30
2018-07-02T19:19:56.415Z,22.20
2018-07-02T19:22:25.250Z,22.10
2018-07-02T19:24:53.818Z,22.00
2018-07-02T19:27:22.256Z,21.90
2018-07-02T19:29:50.837Z,21.80
2018-07-02T19:32:19.325Z,21.60
2018-07-02T19:34:49.105Z,21.50
2018-07-02T19:37:17.627Z,21.30
2018-07-02T19:39:46.210Z,21.20
2018-07-02T19:42:14.766Z,21.00
2018-07-02T19:44:43.210Z,20.90
2018-07-02T19:47:11.872Z,20.70
2018-07-02T19:49:40.414Z,20.60
2018-07-02T19:52:08.909Z,20.50
2018-07-02T19:54:37.556Z,20.40
2018-07-02T19:57:06.377Z,20.20
2018-07-02T19:59:34.954Z,20.10
2018-07-02T20:02:03.429Z,20.00
2018-07-02T20:04:31.835Z,19.90
2018-07-02T20:07:00.631Z,19.70
2018-07-02T20:09:28.995Z,19.60
2018-07-02T20:11:57.574Z,19.50
2018-07-02T20:14:25.971Z,19.40
2018-07-02T20:16:54.335Z,19.30
2018-07-02T20:19:22.722Z,19.10
2018-07-02T20:21:51.271Z,19.00
2018-07-02T20:24:19.703Z,18.90
2018-07-02T20:26:48.053Z,18.80
2018-07-02T20:29:17.049Z,18.70
2018-07-02T20:31:45.569Z,18.50
2018-07-02T20:34:14.043Z,18.40
2018-07-02T20:36:42.498Z,18.30
2018-07-02T20:39:11.843Z,18.20
2018-07-02T20:41:40.307Z,18.00
2018-07-02T20:44:10.443Z,17.90
2018-07-02T20:46:39.227Z,17.80
2018-07-02T20:49:07.660Z,17.70
2018-07-02T20:51:36.155Z,17.60
2018-07-02T20:54:04.710Z,17.50
2018-07-02T20:56:33.249Z,17.40
2018-07-02T20:59:01.649Z,17.30
2018-07-02T21:01:30.031Z,17.20
2018-07-02T21:03:58.464Z,17.00
2018-07-02T21:06:27.082Z,16.90
2018-07-02T21:08:55.496Z,16.80
2018-07-02T21:11:23.856Z,16.60
2018-07-02T21:13:52.250Z,16.50
2018-07-02T21:16:20.596Z,16.40
2018-07-02T21:18:48.962Z,16.30
2018-07-02T21:21:17.399Z,16.20
2018-07-02T21:23:45.758Z,16.20
2018-07-02T21:26:14.140Z,16.10
2018-07-02T21:28:42.651Z,16.00
2018-07-02T21:31:11.263Z,16.00
2018-07-02T21:36:07.717Z,15.80
2018-07-02T21:38:36.136Z,15.70
2018-07-02T21:41:04.590Z,15.70
2018-07-02T21:43:32.930Z,15.60
2018-07-02T21:46:01.345Z,15.50
2018-07-02T21:48:29.789Z,15.40
2018-07-02T21:50:58.202Z,15.30
2018-07-02T21:53:26.652Z,15.20
2018-07-02T21:55:55.018Z,15.10
2018-07-02T21:58:23.639Z,15.10
2018-07-02T22:00:52.040Z,15.00
2018-07-02T22:03:20.502Z,15.00
2018-07-02T22:05:48.890Z,15.00
2018-07-02T22:08:17.307Z,14.90
2018-07-02T22:10:45.704Z,14.90
2018-07-02T22:13:14.107Z,14.80
2018-07-02T22:15:43.703Z,14.70
2018-07-02T22:18:12.099Z,14.70
2018-07-02T22:20:40.503Z,14.60
2018-07-02T22:23:08.869Z,14.50
2018-07-02T22:25:37.244Z,14.40
2018-07-02T22:28:05.726Z,14.40
2018-07-02T22:30:34.110Z,14.30
2018-07-02T22:33:02.539Z,14.20
2018-07-02T22:35:30.956Z,14.20
2018-07-02T22:37:59.343Z,14.20
2018-07-02T22:40:27.775Z,14.10
2018-07-02T22:42:56.151Z,14.10
2018-07-02T22:45:24.556Z,14.00
2018-07-02T22:47:52.993Z,14.00
2018-07-02T22:50:21.371Z,13.90
2018-07-02T22:52:49.725Z,13.80
2018-07-02T22:55:18.093Z,13.70
2018-07-02T22:57:46.494Z,13.60
2018-07-02T23:00:14.852Z,13.60
2018-07-02T23:02:43.232Z,13.50
2018-07-02T23:05:11.627Z,13.50
2018-07-02T23:07:40.000Z,13.40
2018-07-02T23:10:08.364Z,13.40
2018-07-02T23:12:36.782Z,13.40
2018-07-02T23:15:05.260Z,13.30
2018-07-02T23:17:33.640Z,13.30
2018-07-02T23:20:01.997Z,13.30
2018-07-02T23:22:45.780Z,13.20
2018-07-02T23:25:14.150Z,13.10
2018-07-02T23:30:10.606Z,13.00
2018-07-02T23:32:38.967Z,13.00
2018-07-02T23:35:07.412Z,12.90
2018-07-02T23:37:35.806Z,12.90
2018-07-02T23:40:04.211Z,12.80
2018-07-02T23:42:32.583Z,12.80
2018-07-02T23:45:00.951Z,12.70
2018-07-02T23:47:29.313Z,12.70
2018-07-02T23:49:57.684Z,12.60
2018-07-02T23:52:26.184Z,12.60
2018-07-02T23:54:54.565Z,12.60
2018-07-02T23:57:22.933Z,12.50
2018-07-02T23:59:51.294Z,12.50
